• Join FlightAware (Why Join?)
  • Login
  • US Flag 
Gobble Gobble! 
11:27PM EST


 

Airport Tracker/Info


-or-


 

Live Flight TrackerFlight Track Log ✈ CSZ9167 ✈ 25-Jul-2014 ✈ ZUCK / CKG - ZSNJ / NKG

Flight Track Log - Related Links

Times and Time Zones

All times are in EDT time to prevent confusion due to time zone crossing. See the CSZ9167 flight status page for this flight to view local times or setup timezone preferences in your user account.

Time Position Orientation Groundspeed Altitude Reporting Facility
EDT Latitude Longitude Course Direction KTS MPH feet Rate Location/Type
07:37PM 30.0308 108.1231 76° East  Level Estimated
07:38PM 30.0583 108.2583 77° East  Level Estimated
07:39PM 30.0856 108.3935 77° East  Level Estimated
07:40PM 30.1128 108.5289 77° East  Level Estimated
07:41PM 30.1399 108.6643 77° East  Level Estimated
07:42PM 30.1668 108.7998 77° East  Level Estimated
07:43PM 30.1936 108.9353 77° East  Level Estimated
07:44PM 30.2203 109.0710 77° East  Level Estimated
07:45PM 30.2468 109.2067 77° East  Level Estimated
07:46PM 30.2731 109.3425 77° East  Level Estimated
07:47PM 30.2994 109.4783 77° East  Level Estimated
07:48PM 30.3255 109.6143 77° East  Level Estimated
07:49PM 30.3514 109.7503 77° East  Level Estimated
07:50PM 30.3772 109.8863 78° East  Level Estimated
07:51PM 30.4029 110.0225 78° East  Level Estimated
07:52PM 30.4284 110.1587 78° East  Level Estimated
07:53PM 30.4538 110.2950 78° East  Level Estimated
07:54PM 30.4791 110.4313 78° East  Level Estimated
07:55PM 30.5042 110.5678 78° East  Level Estimated
07:56PM 30.5291 110.7042 78° East  Level Estimated
07:57PM 30.5539 110.8408 78° East  Level Estimated
07:58PM 30.5786 110.9775 78° East  Level Estimated
07:59PM 30.6031 111.1142 78° East  Level Estimated
08:00PM 30.6275 111.2509 78° East  Level Estimated
08:01PM 30.6518 111.3878 78° East  Level Estimated
08:02PM 30.6759 111.5247 78° East  Level Estimated
08:03PM 30.6999 111.6617 78° East  Level Estimated
08:04PM 30.7237 111.7987 79° East  Level Estimated
08:05PM 30.7473 111.9358 79° East  Level Estimated
08:06PM 30.7709 112.0730 79° East  Level Estimated
08:07PM 30.7943 112.2103 79° East  Level Estimated
08:08PM 30.8175 112.3476 79° East  Level Estimated
08:09PM 30.8406 112.4850 79° East  Level Estimated
08:10PM 30.8635 112.6224 79° East  Level Estimated
08:11PM 30.8863 112.7599 79° East  Level Estimated
08:12PM 30.9090 112.8975 79° East  Level Estimated
08:13PM 30.9315 113.0352 79° East  Level Estimated
08:14PM 30.9539 113.1729 79° East  Level Estimated
08:15PM 30.9761 113.3107 79° East  Level Estimated
08:16PM 30.9982 113.4485 79° East  Level Estimated
08:17PM 31.0201 113.5864 79° East  Level Estimated
08:18PM 31.0419 113.7243 80° East  Level Estimated
08:19PM 31.0635 113.8624 80° East  Level Estimated
08:20PM 31.0850 114.0005 80° East  Level Estimated
08:21PM 31.1063 114.1386 80° East  Level Estimated
08:22PM 31.1275 114.2768 80° East  Level Estimated
08:23PM 31.1486 114.4151 80° East  Level Estimated
08:24PM 31.1695 114.5535 80° East  Level Estimated
08:25PM 31.1902 114.6918 80° East  Level Estimated
08:26PM 31.2108 114.8303 80° East  Level Estimated
08:27PM 31.2313 114.9688 80° East  Level Estimated
08:28PM 31.2516 115.1074 80° East  Level Estimated
08:29PM 31.2717 115.2460 80° East  Level Estimated
08:30PM 31.2917 115.3847 80° East  Level Estimated
08:31PM 31.3116 115.5235 80° East  Level Estimated
08:32PM 31.3313 115.6623 81° East  Level Estimated
08:33PM 31.3509 115.8012 81° East  Level Estimated
08:34PM 31.3703 115.9401 81° East  Level Estimated
08:35PM 31.3895 116.0791 81° East  Level Estimated
08:36PM 31.4086 116.2181 81° East  Level Estimated
08:37PM 31.4276 116.3572 81° East  Level Estimated
08:38PM 31.4464 116.4964 81° East  Level Estimated
08:39PM 31.4651 116.6356 81° East  Level Estimated
08:40PM 31.4836 116.7749 81° East  Level Estimated
08:41PM 31.5019 116.9142 81° East  Level Estimated
08:42PM 31.5201 117.0536 81° East  Level Estimated
08:43PM 31.5382 117.1930 81° East  Level Estimated
08:44PM 31.5561 117.3325 81° East  Level Estimated
08:45PM 31.5738 117.4720 81° East  Level Estimated
08:46PM 31.5914 117.6116 82° East  Level Estimated
08:47PM 31.6089 117.7512 82° East  Level Estimated
08:48PM 31.6262 117.8909 82° East  Level Estimated
08:49PM 31.6433 118.0307 82° East  Level Estimated
08:50PM 31.6603 118.1705 82° East  Level Estimated
08:51PM 31.6772 118.3103 82° East  Level Estimated
08:52PM 31.6938 118.4502 82° East  Level Estimated
08:53PM 31.7104 118.5902 82° East  Level Estimated
08:54PM 31.7268 118.7302 82° East  Level Estimated
08:55PM 31.7421 118.8620 82° East  Level Estimated
08:56PM 31.7421 118.8620 North  Level Estimated
08:57PM 31.7421 118.8620 North  Level Estimated
08:58PM 31.7421 118.8620 North  Level Estimated
08:59PM 31.7421 118.8620 North  Level Estimated
09:00PM 31.7421 118.8620 North  Level Estimated
09:01PM 31.7421 118.8620 North  Level Estimated
09:02PM 31.7421 118.8620 North  Level Estimated
09:03PM 31.7421 118.8620 North  Level Estimated
09:04PM 31.7421 118.8620 North  Level Estimated
09:05PM 31.7421 118.8620 North  Level Estimated
09:06PM 31.7421 118.8620 North  Level Estimated
09:07PM 31.7421 118.8620 North  Level Estimated
09:08PM 31.7421 118.8620 North  Level Estimated
09:09PM 31.7421 118.8620 North  Level Estimated
09:10PM 31.7421 118.8620 North  Level Estimated
09:11PM 31.7421 118.8620 North  Level Estimated